Time;durP1;ratioP1;P1;durP2;ratioP2;P2;SDS_P1;SDS_P2;PMS_P1;PMS_P2;Temp;Humidity;BMP_temperature;BMP_pressure;BME280_temperature;BME280_humidity;BME280_pressure;Samples;Min_cycle;Max_cycle;Signal;HPM_P1;HPM_P2
2023/05/10 00:02:24;;;;;;;0.00;0.00;;;12.60;92.10;;;;;;4991352;28;20043;-67
2023/05/10 00:04:50;;;;;;;0.05;0.05;;;12.60;92.30;;;;;;4991531;28;20046;-67
2023/05/10 00:07:17;;;;;;;0.00;0.00;;;12.60;92.40;;;;;;4990385;28;20419;-67
2023/05/10 00:09:43;;;;;;;0.00;0.00;;;12.50;92.40;;;;;;4996146;28;20046;-67
2023/05/10 00:12:08;;;;;;;0.00;0.00;;;12.50;92.50;;;;;;4979889;28;20120;-67
2023/05/10 00:14:35;;;;;;;0.00;0.00;;;12.50;92.60;;;;;;4996055;28;20130;-67
2023/05/10 00:17:00;;;;;;;0.00;0.00;;;12.50;92.50;;;;;;4991358;28;20514;-67
2023/05/10 00:19:26;;;;;;;0.00;0.00;;;12.50;92.50;;;;;;4992760;28;20054;-67
2023/05/10 00:21:52;;;;;;;0.00;0.00;;;12.50;92.40;;;;;;5005223;28;20505;-68
2023/05/10 00:24:17;;;;;;;0.00;0.00;;;12.50;92.40;;;;;;4987707;28;20035;-67
2023/05/10 00:26:43;;;;;;;0.00;0.00;;;12.50;92.50;;;;;;4978355;28;20118;-67
2023/05/10 00:29:08;;;;;;;0.10;0.10;;;12.50;92.70;;;;;;4990430;28;20561;-67
2023/05/10 00:31:34;;;;;;;0.15;0.15;;;12.50;92.60;;;;;;4990010;28;20046;-67
2023/05/10 00:33:59;;;;;;;0.00;0.00;;;12.50;92.70;;;;;;5005005;28;20049;-67
2023/05/10 00:36:25;;;;;;;0.00;0.00;;;12.50;92.80;;;;;;4970142;28;20085;-67
2023/05/10 00:38:51;;;;;;;0.00;0.00;;;12.50;92.90;;;;;;4999756;28;20053;-67
2023/05/10 00:41:16;;;;;;;0.10;0.10;;;12.40;93.00;;;;;;5010005;28;20046;-67
2023/05/10 00:43:42;;;;;;;0.03;0.03;;;12.40;93.20;;;;;;4983806;28;20050;-67
2023/05/10 00:46:08;;;;;;;0.00;0.00;;;12.50;93.20;;;;;;4988588;28;20090;-67
2023/05/10 00:48:34;;;;;;;0.00;0.00;;;12.50;93.10;;;;;;5001659;28;20521;-67
2023/05/10 00:51:01;;;;;;;0.00;0.00;;;12.50;93.00;;;;;;5010208;28;20132;-66
2023/05/10 00:53:27;;;;;;;0.00;0.00;;;12.50;93.00;;;;;;5004356;28;20137;-67
2023/05/10 00:55:53;;;;;;;0.00;0.00;;;12.60;93.20;;;;;;4991417;28;20526;-66
2023/05/10 00:58:18;;;;;;;0.28;0.25;;;12.50;93.00;;;;;;4998089;28;20042;-67
2023/05/10 01:00:46;;;;;;;0.00;0.00;;;12.40;93.30;;;;;;5001088;28;20050;-66
2023/05/10 01:03:12;;;;;;;0.47;0.47;;;12.40;93.40;;;;;;4993181;28;20513;-66
2023/05/10 01:05:38;;;;;;;2.83;2.00;;;12.40;93.50;;;;;;4994306;28;20632;-67
2023/05/10 01:08:04;;;;;;;0.65;0.65;;;12.40;93.50;;;;;;4991225;28;20050;-67
2023/05/10 01:10:30;;;;;;;0.00;0.00;;;12.30;93.60;;;;;;4987236;28;20078;-67
2023/05/10 01:12:56;;;;;;;5.68;1.75;;;12.30;93.80;;;;;;4997245;28;20057;-67
2023/05/10 01:15:22;;;;;;;0.00;0.00;;;12.30;93.80;;;;;;5009810;28;20049;-67
2023/05/10 01:17:48;;;;;;;1.35;1.25;;;12.30;93.70;;;;;;5009093;28;20446;-67
2023/05/10 01:20:15;;;;;;;0.57;0.47;;;12.30;93.80;;;;;;4990170;28;20078;-67
2023/05/10 01:23:14;;;;;;;0.00;0.00;;;12.30;93.80;;;;;;4990184;28;20046;-67
2023/05/10 01:26:12;;;;;;;0.10;0.10;;;12.30;94.00;;;;;;4984937;28;20045;-67
2023/05/10 01:29:13;;;;;;;0.65;0.65;;;12.30;93.90;;;;;;4985517;28;20518;-67
2023/05/10 01:32:01;;;;;;;0.73;0.65;;;12.30;94.10;;;;;;4989582;28;20757;-67
2023/05/10 01:34:39;;;;;;;0.20;0.20;;;12.20;94.20;;;;;;5002662;28;20041;-67
2023/05/10 01:37:20;;;;;;;0.00;0.00;;;12.20;94.20;;;;;;4990908;28;20046;-67
2023/05/10 01:39:54;;;;;;;0.03;0.03;;;12.20;94.30;;;;;;4990019;28;20078;-67
2023/05/10 01:42:25;;;;;;;0.15;0.15;;;12.20;94.30;;;;;;4988766;28;20096;-67
2023/05/10 01:45:11;;;;;;;0.00;0.00;;;12.30;94.40;;;;;;4993635;28;20092;-67
2023/05/10 01:48:00;;;;;;;0.03;0.03;;;12.20;94.30;;;;;;4984910;28;20506;-67
2023/05/10 01:50:30;;;;;;;0.30;0.30;;;12.30;94.40;;;;;;4999532;28;20475;-67
2023/05/10 01:52:58;;;;;;;0.00;0.00;;;12.20;94.40;;;;;;4988124;28;20466;-67
2023/05/10 01:55:32;;;;;;;0.00;0.00;;;12.20;94.40;;;;;;4992304;28;20069;-66
2023/05/10 01:58:05;;;;;;;1.73;0.63;;;12.20;94.40;;;;;;5001758;28;20042;-67
2023/05/10 02:00:33;;;;;;;0.03;0.03;;;12.20;94.40;;;;;;4982628;28;20050;-67
2023/05/10 02:03:01;;;;;;;0.05;0.05;;;12.20;94.40;;;;;;4979928;28;20042;-67
2023/05/10 02:05:30;;;;;;;0.20;0.20;;;12.20;94.50;;;;;;4994073;28;20042;-67
2023/05/10 02:07:57;;;;;;;0.05;0.05;;;12.20;94.40;;;;;;4988616;28;20802;-67
2023/05/10 02:10:23;;;;;;;0.00;0.00;;;12.20;94.50;;;;;;5003645;28;20053;-67
2023/05/10 02:12:50;;;;;;;0.00;0.00;;;12.10;94.50;;;;;;5001379;28;20454;-67
2023/05/10 02:15:22;;;;;;;0.00;0.00;;;12.20;94.60;;;;;;4989508;28;20113;-67
2023/05/10 02:17:48;;;;;;;0.00;0.00;;;12.20;94.50;;;;;;4991674;28;20082;-67
2023/05/10 02:20:15;;;;;;;0.00;0.00;;;12.20;94.50;;;;;;4992818;28;20512;-66
2023/05/10 02:22:42;;;;;;;0.00;0.00;;;12.20;94.60;;;;;;5008782;28;20041;-67
2023/05/10 02:25:09;;;;;;;0.10;0.10;;;12.10;94.60;;;;;;5003747;28;20054;-67
2023/05/10 02:27:35;;;;;;;0.08;0.08;;;12.10;94.50;;;;;;5013007;28;20467;-67
2023/05/10 02:30:02;;;;;;;0.17;0.17;;;12.10;94.50;;;;;;5004225;28;20117;-67
2023/05/10 02:32:28;;;;;;;0.10;0.10;;;12.10;94.50;;;;;;4993251;28;20092;-67
2023/05/10 02:34:55;;;;;;;0.90;0.45;;;12.10;94.50;;;;;;4999756;28;20575;-66
2023/05/10 02:37:22;;;;;;;0.00;0.00;;;12.20;94.60;;;;;;5011060;28;20112;-67
2023/05/10 02:39:49;;;;;;;0.00;0.00;;;12.20;94.50;;;;;;5006516;28;20046;-67
2023/05/10 02:42:21;;;;;;;0.00;0.00;;;12.10;94.50;;;;;;4992928;28;20038;-67
2023/05/10 02:44:50;;;;;;;0.40;0.40;;;12.10;94.50;;;;;;4992633;28;20046;-67
2023/05/10 02:47:16;;;;;;;0.00;0.00;;;12.10;94.50;;;;;;4987414;28;20041;-67
2023/05/10 02:49:42;;;;;;;0.00;0.00;;;12.10;94.50;;;;;;4987780;28;20376;-66
2023/05/10 02:52:11;;;;;;;0.10;0.10;;;12.10;94.50;;;;;;4992674;28;20050;-68
2023/05/10 02:54:43;;;;;;;0.00;0.00;;;12.10;94.50;;;;;;4994428;28;20046;-67
2023/05/10 02:57:15;;;;;;;0.00;0.00;;;12.20;94.50;;;;;;5012617;28;20048;-67
2023/05/10 02:59:42;;;;;;;0.00;0.00;;;12.20;94.40;;;;;;5010670;28;20046;-67
2023/05/10 03:02:09;;;;;;;0.00;0.00;;;12.10;94.40;;;;;;4992789;28;20057;-67
2023/05/10 03:04:35;;;;;;;0.00;0.00;;;12.10;94.40;;;;;;4997621;28;20042;-67
2023/05/10 03:07:01;;;;;;;0.00;0.00;;;12.10;94.30;;;;;;5011775;28;20095;-67
2023/05/10 03:09:26;;;;;;;0.00;0.00;;;12.20;94.30;;;;;;5011992;28;20050;-67
2023/05/10 03:12:07;;;;;;;0.00;0.00;;;12.10;94.20;;;;;;4994148;28;20407;-67
2023/05/10 03:14:51;;;;;;;0.00;0.00;;;12.20;94.30;;;;;;4996518;28;20057;-67
2023/05/10 03:17:37;;;;;;;0.00;0.00;;;12.10;94.20;;;;;;4973042;28;20053;-67
2023/05/10 03:20:16;;;;;;;0.00;0.00;;;12.10;94.30;;;;;;4967311;28;20090;-67
2023/05/10 03:22:47;;;;;;;0.00;0.00;;;12.10;94.30;;;;;;4992400;28;20515;-67
2023/05/10 03:25:16;;;;;;;0.00;0.00;;;12.10;94.30;;;;;;4994861;28;20046;-66
2023/05/10 03:27:44;;;;;;;0.00;0.00;;;12.20;94.30;;;;;;5011573;28;20061;-67
2023/05/10 03:30:12;;;;;;;0.00;0.00;;;12.10;94.20;;;;;;5009631;28;20049;-67
2023/05/10 03:32:37;;;;;;;0.00;0.00;;;12.10;94.30;;;;;;4992214;28;20042;-67
2023/05/10 03:35:08;;;;;;;0.10;0.10;;;12.10;94.20;;;;;;4992093;28;20093;-67
2023/05/10 03:37:34;;;;;;;0.10;0.10;;;12.10;94.20;;;;;;4997308;28;20045;-67
2023/05/10 03:39:59;;;;;;;0.00;0.00;;;12.10;94.30;;;;;;5010429;28;20561;-67
2023/05/10 03:42:25;;;;;;;0.00;0.00;;;12.10;94.30;;;;;;4995540;28;20105;-67
2023/05/10 03:44:50;;;;;;;0.00;0.00;;;12.20;94.30;;;;;;4993203;28;20045;-67
2023/05/10 03:47:16;;;;;;;0.00;0.00;;;12.10;94.30;;;;;;4992515;28;20050;-67
2023/05/10 03:49:41;;;;;;;1.17;0.75;;;12.20;94.30;;;;;;4998331;28;20069;-67
2023/05/10 03:52:07;;;;;;;0.00;0.00;;;12.10;94.20;;;;;;4991236;28;20038;-67
2023/05/10 03:54:32;;;;;;;0.00;0.00;;;12.10;94.20;;;;;;4992452;28;20041;-67
2023/05/10 03:56:58;;;;;;;0.00;0.00;;;12.10;94.20;;;;;;4990429;28;20042;-67
2023/05/10 03:59:23;;;;;;;0.00;0.00;;;12.10;94.20;;;;;;4992507;28;20046;-67
2023/05/10 04:01:49;;;;;;;0.00;0.00;;;12.10;94.20;;;;;;4991902;28;20534;-68
2023/05/10 04:04:15;;;;;;;0.00;0.00;;;12.10;94.20;;;;;;4996580;28;20498;-67
2023/05/10 04:06:40;;;;;;;0.00;0.00;;;12.10;94.20;;;;;;4971989;28;20038;-67
2023/05/10 04:09:06;;;;;;;0.00;0.00;;;12.10;94.20;;;;;;4981803;28;20479;-67
2023/05/10 04:11:31;;;;;;;0.00;0.00;;;12.10;94.20;;;;;;4991417;28;20117;-67
2023/05/10 04:13:57;;;;;;;0.00;0.00;;;12.10;94.20;;;;;;4989174;28;20073;-67
2023/05/10 04:16:22;;;;;;;0.00;0.00;;;12.10;94.30;;;;;;4986923;28;20125;-67
2023/05/10 04:18:48;;;;;;;0.00;0.00;;;12.10;94.30;;;;;;4991009;28;20042;-67
2023/05/10 04:21:14;;;;;;;0.00;0.00;;;12.20;94.30;;;;;;4990717;28;20430;-67
2023/05/10 04:23:40;;;;;;;0.00;0.00;;;12.20;94.30;;;;;;4971370;28;20042;-67
2023/05/10 04:26:06;;;;;;;0.10;0.10;;;12.20;94.30;;;;;;4977403;28;20112;-67
2023/05/10 04:28:32;;;;;;;0.00;0.00;;;12.20;94.40;;;;;;4990732;28;20492;-67
2023/05/10 04:31:04;;;;;;;0.00;0.00;;;12.20;94.30;;;;;;4976524;28;20049;-68
2023/05/10 04:33:30;;;;;;;0.00;0.00;;;12.20;94.40;;;;;;4989198;28;20054;-68
2023/05/10 04:35:56;;;;;;;0.00;0.00;;;12.20;94.40;;;;;;4973851;28;20225;-67
2023/05/10 04:38:21;;;;;;;0.10;0.10;;;12.20;94.30;;;;;;4990528;28;20038;-67
2023/05/10 04:40:47;;;;;;;0.00;0.00;;;12.30;94.30;;;;;;4989344;28;20100;-67
2023/05/10 04:43:12;;;;;;;0.00;0.00;;;12.20;94.20;;;;;;4990710;28;20050;-67
2023/05/10 04:45:38;;;;;;;0.00;0.00;;;12.20;94.30;;;;;;4989829;28;20121;-66
2023/05/10 04:48:04;;;;;;;0.00;0.00;;;12.20;94.30;;;;;;4990393;28;20054;-67
2023/05/10 04:50:30;;;;;;;0.00;0.00;;;12.20;94.40;;;;;;4990521;28;20050;-67
2023/05/10 04:52:55;;;;;;;0.00;0.00;;;12.20;94.40;;;;;;4997651;28;20525;-66
2023/05/10 04:55:21;;;;;;;0.00;0.00;;;12.20;94.40;;;;;;4989875;28;20046;-67
2023/05/10 04:57:46;;;;;;;0.00;0.00;;;12.30;94.40;;;;;;4990548;28;20038;-67
2023/05/10 05:00:12;;;;;;;0.00;0.00;;;12.30;94.40;;;;;;4984833;28;20050;-67
2023/05/10 05:02:38;;;;;;;0.00;0.00;;;12.30;94.40;;;;;;4978751;28;20058;-66
2023/05/10 05:05:04;;;;;;;0.00;0.00;;;12.30;94.40;;;;;;4990132;28;20038;-66
2023/05/10 05:07:30;;;;;;;0.00;0.00;;;12.30;94.40;;;;;;4990214;28;20038;-67
2023/05/10 05:09:56;;;;;;;0.00;0.00;;;12.30;94.50;;;;;;4990477;28;20491;-67
2023/05/10 05:12:21;;;;;;;0.00;0.00;;;12.30;94.40;;;;;;4990238;28;20046;-67
2023/05/10 05:14:47;;;;;;;0.00;0.00;;;12.30;94.30;;;;;;4990088;28;20132;-66
2023/05/10 05:17:12;;;;;;;0.00;0.00;;;12.30;94.40;;;;;;4994027;28;20129;-66
2023/05/10 05:19:38;;;;;;;0.00;0.00;;;12.30;94.40;;;;;;4996760;28;20046;-67
2023/05/10 05:22:06;;;;;;;0.05;0.05;;;12.30;94.50;;;;;;4990311;28;20042;-67
2023/05/10 05:24:36;;;;;;;0.00;0.00;;;12.30;94.40;;;;;;4990173;28;20471;-67
2023/05/10 05:27:01;;;;;;;0.00;0.00;;;12.30;94.30;;;;;;4990237;28;20089;-67
2023/05/10 05:29:27;;;;;;;0.00;0.00;;;12.30;94.40;;;;;;4991177;28;20042;-67
2023/05/10 05:31:52;;;;;;;0.00;0.00;;;12.30;94.40;;;;;;4991036;28;20043;-67
2023/05/10 05:34:20;;;;;;;0.00;0.00;;;12.30;94.50;;;;;;4990033;28;20133;-67
2023/05/10 05:36:45;;;;;;;1.75;1.27;;;12.30;94.50;;;;;;4970952;28;20108;-67
2023/05/10 05:39:11;;;;;;;0.10;0.10;;;12.20;94.50;;;;;;4970995;28;20043;-67
2023/05/10 05:41:36;;;;;;;0.00;0.00;;;12.20;94.50;;;;;;4976052;28;20050;-66
2023/05/10 05:44:02;;;;;;;0.00;0.00;;;12.20;94.50;;;;;;4989904;28;20081;-66
2023/05/10 05:46:28;;;;;;;0.00;0.00;;;12.30;94.60;;;;;;4972823;28;20057;-67
2023/05/10 05:48:53;;;;;;;0.00;0.00;;;12.30;94.30;;;;;;4990806;28;20588;-66
2023/05/10 05:51:19;;;;;;;0.00;0.00;;;12.30;94.40;;;;;;4990784;28;20050;-68
2023/05/10 05:53:45;;;;;;;0.00;0.00;;;12.20;94.40;;;;;;4994949;28;20061;-67
2023/05/10 05:56:10;;;;;;;0.00;0.00;;;12.20;94.50;;;;;;4986205;28;20050;-67
2023/05/10 05:58:36;;;;;;;0.10;0.10;;;12.20;94.50;;;;;;4993411;28;20148;-67
2023/05/10 06:01:01;;;;;;;0.00;0.00;;;12.20;94.60;;;;;;4998242;28;20057;-67
2023/05/10 06:03:27;;;;;;;0.00;0.00;;;12.20;94.60;;;;;;4992410;28;20046;-66
2023/05/10 06:05:52;;;;;;;0.00;0.00;;;12.20;94.60;;;;;;4974852;28;20542;-67
2023/05/10 06:08:18;;;;;;;0.03;0.03;;;12.20;94.60;;;;;;4979761;28;20419;-67
2023/05/10 06:10:44;;;;;;;0.08;0.08;;;12.30;94.60;;;;;;4987461;28;20027;-67
2023/05/10 06:13:09;;;;;;;0.00;0.00;;;12.30;94.50;;;;;;4981637;28;20073;-67
2023/05/10 06:15:35;;;;;;;0.15;0.15;;;12.20;94.40;;;;;;4989778;28;20121;-66
2023/05/10 06:18:01;;;;;;;0.08;0.08;;;12.20;94.60;;;;;;4993930;28;20137;-66
2023/05/10 06:20:26;;;;;;;0.10;0.10;;;12.20;94.50;;;;;;5003496;28;20042;-67
2023/05/10 06:22:52;;;;;;;0.70;0.70;;;12.10;94.50;;;;;;4994504;28;20046;-69
2023/05/10 06:25:18;;;;;;;0.00;0.00;;;12.20;94.50;;;;;;4982907;28;20042;-69
2023/05/10 06:27:44;;;;;;;0.45;0.45;;;12.20;94.60;;;;;;4975566;28;20129;-68
2023/05/10 06:30:10;;;;;;;0.00;0.00;;;12.20;94.60;;;;;;4987866;28;20500;-68
2023/05/10 06:32:36;;;;;;;0.03;0.03;;;12.20;94.60;;;;;;4988790;28;20892;-66
2023/05/10 06:35:01;;;;;;;0.00;0.00;;;12.20;94.50;;;;;;4985948;28;20050;-65
2023/05/10 06:37:27;;;;;;;0.00;0.00;;;12.30;94.70;;;;;;4985498;28;20051;-64
2023/05/10 06:39:52;;;;;;;0.00;0.00;;;12.30;94.70;;;;;;4975996;28;20056;-63
2023/05/10 06:42:18;;;;;;;0.00;0.00;;;12.40;94.60;;;;;;4992532;28;20046;-63
2023/05/10 06:44:43;;;;;;;0.00;0.00;;;12.30;94.50;;;;;;4980560;28;20135;-65
2023/05/10 06:47:09;;;;;;;0.00;0.00;;;12.30;94.60;;;;;;4986032;28;20126;-65
2023/05/10 06:49:35;;;;;;;0.00;0.00;;;12.30;94.50;;;;;;5001481;28;20246;-64
2023/05/10 06:52:00;;;;;;;0.00;0.00;;;12.30;94.30;;;;;;4998380;28;20073;-64
2023/05/10 06:54:26;;;;;;;0.00;0.00;;;12.20;94.50;;;;;;4998612;28;20105;-65
2023/05/10 06:56:51;;;;;;;0.00;0.00;;;12.30;94.60;;;;;;4990485;28;20118;-65
2023/05/10 06:59:19;;;;;;;0.08;0.08;;;12.30;94.50;;;;;;4999135;28;20058;-65
2023/05/10 07:01:44;;;;;;;0.00;0.00;;;12.30;94.40;;;;;;4994847;28;20073;-64
2023/05/10 07:04:10;;;;;;;0.00;0.00;;;12.20;94.50;;;;;;5002184;28;20096;-64
2023/05/10 07:06:35;;;;;;;0.00;0.00;;;12.30;94.50;;;;;;4991426;28;20047;-64
2023/05/10 07:09:01;;;;;;;0.00;0.00;;;12.30;94.50;;;;;;4993694;28;20557;-64
2023/05/10 07:11:27;;;;;;;0.00;0.00;;;12.20;94.40;;;;;;4977449;28;20056;-65
2023/05/10 07:13:52;;;;;;;0.00;0.00;;;12.20;94.50;;;;;;4970482;28;20133;-64
2023/05/10 07:16:18;;;;;;;0.00;0.00;;;12.20;94.50;;;;;;4972353;28;20408;-64
2023/05/10 07:18:43;;;;;;;0.00;0.00;;;12.30;94.50;;;;;;4977362;28;20050;-65
2023/05/10 07:21:09;;;;;;;0.00;0.00;;;12.30;94.40;;;;;;4972230;28;20526;-65
2023/05/10 07:23:35;;;;;;;0.00;0.00;;;12.20;94.30;;;;;;4986660;28;20058;-66
2023/05/10 07:26:01;;;;;;;0.00;0.00;;;12.30;94.50;;;;;;4986433;28;20443;-65
2023/05/10 07:28:27;;;;;;;0.20;0.20;;;12.30;94.40;;;;;;4989832;28;20088;-65
2023/05/10 07:30:53;;;;;;;0.05;0.05;;;12.30;94.50;;;;;;5006667;28;20100;-65
2023/05/10 07:33:19;;;;;;;0.00;0.00;;;12.30;94.10;;;;;;4987059;28;20046;-65
2023/05/10 07:35:44;;;;;;;0.00;0.00;;;12.30;94.40;;;;;;5008367;28;20116;-66
2023/05/10 07:38:12;;;;;;;0.00;0.00;;;12.30;94.30;;;;;;5010844;28;20467;-65
2023/05/10 07:40:39;;;;;;;0.00;0.00;;;12.30;94.20;;;;;;5002852;28;20952;-65
2023/05/10 07:43:04;;;;;;;0.00;0.00;;;12.40;94.30;;;;;;4991839;28;20085;-66
2023/05/10 07:45:30;;;;;;;0.00;0.00;;;12.40;94.20;;;;;;5003723;28;20076;-66
2023/05/10 07:47:55;;;;;;;0.00;0.00;;;12.40;94.10;;;;;;5007270;28;20050;-66
2023/05/10 07:50:21;;;;;;;0.00;0.00;;;12.40;94.20;;;;;;5001009;28;20049;-66
2023/05/10 07:52:47;;;;;;;0.00;0.00;;;12.50;94.10;;;;;;4990345;28;20054;-66
2023/05/10 07:55:13;;;;;;;0.00;0.00;;;12.50;93.90;;;;;;5000153;28;20048;-66
2023/05/10 07:57:39;;;;;;;0.00;0.00;;;12.50;94.00;;;;;;4990716;28;20058;-65
2023/05/10 08:00:05;;;;;;;0.00;0.00;;;12.50;93.90;;;;;;4991408;28;20054;-66
2023/05/10 08:02:32;;;;;;;0.00;0.00;;;12.50;93.90;;;;;;4973032;28;20101;-66
2023/05/10 08:04:57;;;;;;;0.00;0.00;;;12.50;93.90;;;;;;5002182;28;20045;-65
2023/05/10 08:07:24;;;;;;;0.00;0.00;;;12.60;93.80;;;;;;5005220;28;20038;-65
2023/05/10 08:09:50;;;;;;;0.00;0.00;;;12.60;93.80;;;;;;5004258;28;20085;-64
2023/05/10 08:12:16;;;;;;;0.00;0.00;;;12.60;93.70;;;;;;4991491;28;20395;-66
2023/05/10 08:14:41;;;;;;;0.00;0.00;;;12.60;93.70;;;;;;5004022;28;20031;-65
2023/05/10 08:17:07;;;;;;;0.00;0.00;;;12.60;93.70;;;;;;5007185;28;20076;-65
2023/05/10 08:19:32;;;;;;;0.00;0.00;;;12.60;93.70;;;;;;4994470;28;20046;-64
2023/05/10 08:21:58;;;;;;;0.10;0.10;;;12.60;93.40;;;;;;4996332;28;20179;-65
2023/05/10 08:24:23;;;;;;;0.00;0.00;;;12.60;93.50;;;;;;4990299;28;20050;-66
2023/05/10 08:26:49;;;;;;;0.00;0.00;;;12.70;93.40;;;;;;4990138;28;20078;-66
2023/05/10 08:29:15;;;;;;;0.00;0.00;;;12.80;93.70;;;;;;4990940;28;20061;-67
2023/05/10 08:31:40;;;;;;;0.00;0.00;;;12.90;93.70;;;;;;4990053;28;20046;-67
2023/05/10 08:34:06;;;;;;;0.00;0.00;;;13.00;93.70;;;;;;4987640;28;20089;-65
2023/05/10 08:36:32;;;;;;;0.03;0.03;;;13.10;93.50;;;;;;4989704;28;20046;-65
2023/05/10 08:38:58;;;;;;;0.10;0.10;;;13.20;93.50;;;;;;4989296;28;20499;-66
2023/05/10 08:41:25;;;;;;;0.00;0.00;;;13.20;93.00;;;;;;4994284;28;20112;-65
2023/05/10 08:43:51;;;;;;;0.00;0.00;;;13.20;93.20;;;;;;5002576;28;20054;-66
2023/05/10 08:46:21;;;;;;;0.00;0.00;;;13.40;93.30;;;;;;4989415;28;20045;-66
2023/05/10 08:48:48;;;;;;;0.00;0.00;;;13.30;92.30;;;;;;4992900;28;20064;-66
2023/05/10 08:51:17;;;;;;;0.00;0.00;;;13.40;92.80;;;;;;4989949;28;20439;-66
2023/05/10 08:53:44;;;;;;;0.08;0.08;;;13.50;92.40;;;;;;4988873;28;20100;-66
2023/05/10 08:56:09;;;;;;;0.00;0.00;;;13.40;91.70;;;;;;4992815;28;20050;-64
2023/05/10 08:58:36;;;;;;;0.00;0.00;;;13.40;92.30;;;;;;4992295;28;20046;-66
2023/05/10 09:01:03;;;;;;;0.00;0.00;;;13.50;92.00;;;;;;4988791;28;20104;-67
2023/05/10 09:03:30;;;;;;;0.00;0.00;;;13.60;91.80;;;;;;4979481;28;20092;-65
2023/05/10 09:05:56;;;;;;;0.00;0.00;;;13.60;91.00;;;;;;4995520;28;20046;-68
2023/05/10 09:08:25;;;;;;;0.10;0.10;;;13.70;91.40;;;;;;4995103;28;20045;-66
2023/05/10 09:10:51;;;;;;;0.22;0.22;;;13.70;91.40;;;;;;4988850;28;20041;-66
2023/05/10 09:13:19;;;;;;;0.00;0.00;;;13.70;91.20;;;;;;4996386;28;20037;-67
2023/05/10 09:15:45;;;;;;;0.00;0.00;;;13.80;91.30;;;;;;4994797;28;20137;-65
2023/05/10 09:18:12;;;;;;;0.00;0.00;;;13.60;90.80;;;;;;4991723;28;20544;-67
2023/05/10 09:20:37;;;;;;;0.03;0.03;;;13.70;91.00;;;;;;4997225;28;20054;-67
2023/05/10 09:23:03;;;;;;;0.00;0.00;;;13.70;90.90;;;;;;4992211;28;20815;-66
2023/05/10 09:25:28;;;;;;;0.20;0.20;;;13.80;91.10;;;;;;4996916;28;20050;-67
2023/05/10 09:27:55;;;;;;;0.00;0.00;;;13.80;91.00;;;;;;4997407;28;20049;-66
2023/05/10 09:30:30;;;;;;;0.05;0.05;;;13.80;90.90;;;;;;4998305;28;20048;-67
2023/05/10 09:32:57;;;;;;;0.00;0.00;;;13.90;90.90;;;;;;4996908;28;20041;-66
2023/05/10 09:35:25;;;;;;;0.00;0.00;;;13.90;90.70;;;;;;4998210;28;20161;-66
2023/05/10 09:37:56;;;;;;;0.05;0.05;;;14.00;90.80;;;;;;4993166;28;20042;-66
2023/05/10 09:40:24;;;;;;;0.00;0.00;;;13.90;90.40;;;;;;4997414;28;20097;-66
2023/05/10 09:42:55;;;;;;;0.00;0.00;;;14.00;90.60;;;;;;4996389;28;20049;-66
2023/05/10 09:45:23;;;;;;;0.00;0.00;;;14.00;90.60;;;;;;4997398;28;20041;-66
2023/05/10 09:47:49;;;;;;;0.00;0.00;;;14.10;90.40;;;;;;4996765;28;20389;-66
2023/05/10 09:50:14;;;;;;;0.35;0.35;;;14.10;90.10;;;;;;4996431;28;20049;-66
2023/05/10 09:52:53;;;;;;;0.00;0.00;;;14.10;90.00;;;;;;4993047;28;20486;-66
2023/05/10 09:55:24;;;;;;;0.00;0.00;;;14.10;90.00;;;;;;4991399;28;20046;-67
2023/05/10 09:57:58;;;;;;;0.00;0.00;;;14.10;89.70;;;;;;4996796;28;20093;-66
2023/05/10 10:00:24;;;;;;;0.00;0.00;;;14.10;90.00;;;;;;4993879;28;20058;-66
2023/05/10 10:02:58;;;;;;;0.20;0.20;;;14.10;89.90;;;;;;4994485;28;20038;-66
2023/05/10 10:05:30;;;;;;;0.00;0.00;;;14.10;89.30;;;;;;4995475;28;20065;-67
2023/05/10 10:07:57;;;;;;;0.00;0.00;;;14.10;89.70;;;;;;4997350;28;20141;-67
2023/05/10 10:10:24;;;;;;;0.00;0.00;;;14.10;89.10;;;;;;4996975;28;20056;-67
2023/05/10 10:12:51;;;;;;;0.08;0.08;;;14.10;89.40;;;;;;4993481;28;20042;-66
2023/05/10 10:15:17;;;;;;;0.00;0.00;;;14.20;89.60;;;;;;4995737;28;20053;-66
2023/05/10 10:17:43;;;;;;;0.10;0.10;;;14.30;89.30;;;;;;4979031;28;20050;-66
2023/05/10 10:20:09;;;;;;;0.00;0.00;;;14.30;88.50;;;;;;4995312;28;20050;-66
2023/05/10 10:22:36;;;;;;;0.00;0.00;;;14.30;88.80;;;;;;4994977;28;20049;-66
2023/05/10 10:25:03;;;;;;;0.85;0.43;;;14.40;88.90;;;;;;4995259;28;20064;-67
2023/05/10 10:27:53;;;;;;;0.10;0.10;;;14.40;88.60;;;;;;4994402;28;20069;-67
2023/05/10 10:30:25;;;;;;;0.05;0.05;;;14.50;88.80;;;;;;4990883;28;20058;-66
2023/05/10 10:33:28;;;;;;;0.00;0.00;;;14.40;88.50;;;;;;4993723;28;20108;-66
2023/05/10 10:35:55;;;;;;;0.00;0.00;;;14.50;88.40;;;;;;4995542;28;20422;-67
2023/05/10 10:38:22;;;;;;;0.00;0.00;;;14.40;88.10;;;;;;4994126;28;20085;-66
2023/05/10 10:40:48;;;;;;;0.20;0.20;;;14.40;87.90;;;;;;4997768;28;20061;-67
2023/05/10 10:43:27;;;;;;;0.00;0.00;;;14.50;88.50;;;;;;4998250;28;20036;-67
2023/05/10 10:46:16;;;;;;;0.10;0.10;;;14.60;87.70;;;;;;5000298;28;21011;-66
2023/05/10 10:49:07;;;;;;;1.13;0.35;;;14.60;87.30;;;;;;4999167;28;20058;-66
2023/05/10 10:51:37;;;;;;;0.00;0.00;;;14.60;87.50;;;;;;4999713;28;20037;-66
2023/05/10 10:54:10;;;;;;;0.00;0.00;;;14.60;87.10;;;;;;5001912;28;20046;-66
2023/05/10 10:56:36;;;;;;;0.00;0.00;;;14.60;87.40;;;;;;5015138;28;20046;-66
2023/05/10 10:59:01;;;;;;;0.00;0.00;;;14.70;87.60;;;;;;4982087;28;20100;-66
2023/05/10 11:01:35;;;;;;;0.00;0.00;;;14.60;87.10;;;;;;5000624;28;20108;-66
2023/05/10 11:04:04;;;;;;;0.00;0.00;;;14.70;87.60;;;;;;5000623;28;20089;-65
2023/05/10 11:06:34;;;;;;;0.00;0.00;;;14.70;87.40;;;;;;4984133;28;20053;-66
2023/05/10 11:09:07;;;;;;;0.00;0.00;;;14.80;86.20;;;;;;4999176;28;20161;-67
2023/05/10 11:11:34;;;;;;;0.10;0.10;;;14.80;87.00;;;;;;4980387;28;20046;-66
2023/05/10 11:14:05;;;;;;;0.63;0.63;;;14.80;85.70;;;;;;4999349;28;20542;-66
2023/05/10 11:16:44;;;;;;;0.10;0.10;;;14.80;85.80;;;;;;4997905;28;20123;-66
2023/05/10 11:19:12;;;;;;;0.40;0.40;;;14.80;85.10;;;;;;5001185;28;20068;-67
2023/05/10 11:21:51;;;;;;;0.08;0.08;;;14.80;85.50;;;;;;4998007;28;20041;-66
2023/05/10 11:24:22;;;;;;;0.00;0.00;;;14.80;85.30;;;;;;4995124;28;20042;-66
2023/05/10 11:26:51;;;;;;;0.08;0.08;;;14.80;85.20;;;;;;5000518;28;20097;-67
2023/05/10 11:29:16;;;;;;;0.08;0.08;;;14.90;85.10;;;;;;5000008;28;20038;-66
2023/05/10 11:31:46;;;;;;;0.00;0.00;;;15.00;85.80;;;;;;4997639;28;20042;-67
2023/05/10 11:34:26;;;;;;;0.00;0.00;;;15.10;86.10;;;;;;4999732;28;20511;-66
2023/05/10 11:36:54;;;;;;;0.47;0.47;;;15.10;85.20;;;;;;4998824;28;20100;-67
2023/05/10 11:39:20;;;;;;;0.00;0.00;;;15.10;84.80;;;;;;4998668;28;20126;-67
2023/05/10 11:41:50;;;;;;;0.00;0.00;;;15.00;84.50;;;;;;4999111;28;20070;-67
2023/05/10 11:44:16;;;;;;;0.10;0.10;;;15.00;83.90;;;;;;4999615;28;20038;-66
2023/05/10 11:46:41;;;;;;;0.00;0.00;;;15.00;84.10;;;;;;4997800;28;20038;-66
2023/05/10 11:49:07;;;;;;;0.20;0.20;;;15.10;84.80;;;;;;4996999;28;20062;-68
2023/05/10 11:51:35;;;;;;;0.00;0.00;;;15.10;84.30;;;;;;4998046;28;20129;-67
2023/05/10 11:54:05;;;;;;;0.20;0.20;;;15.30;84.00;;;;;;4999190;28;20042;-67
2023/05/10 11:56:32;;;;;;;0.35;0.15;;;15.30;83.40;;;;;;4996704;28;20030;-66
2023/05/10 11:58:58;;;;;;;0.00;0.00;;;15.30;83.60;;;;;;4997355;28;20412;-67
2023/05/10 12:01:25;;;;;;;0.08;0.08;;;15.10;82.60;;;;;;4996380;28;20049;-67
2023/05/10 12:03:53;;;;;;;0.00;0.00;;;15.00;82.40;;;;;;4996001;28;20044;-66
2023/05/10 12:06:20;;;;;;;0.00;0.00;;;15.10;83.60;;;;;;4998103;28;20145;-67
2023/05/10 12:08:48;;;;;;;0.00;0.00;;;15.10;83.80;;;;;;4998168;28;20045;-66
2023/05/10 12:11:15;;;;;;;0.10;0.10;;;15.10;83.60;;;;;;4981343;28;20049;-66
2023/05/10 12:13:42;;;;;;;0.00;0.00;;;15.10;83.80;;;;;;4998457;28;20088;-66
2023/05/10 12:16:14;;;;;;;0.00;0.00;;;15.10;83.20;;;;;;4999164;28;20165;-66
2023/05/10 12:18:41;;;;;;;0.00;0.00;;;15.20;83.40;;;;;;4995475;28;20053;-66
2023/05/10 12:21:07;;;;;;;0.00;0.00;;;15.30;83.10;;;;;;4995694;28;20038;-66
2023/05/10 12:23:32;;;;;;;0.10;0.10;;;15.30;82.60;;;;;;4998719;28;20043;-66
2023/05/10 12:26:04;;;;;;;0.10;0.10;;;15.30;82.40;;;;;;4991103;28;20208;-67
2023/05/10 12:28:31;;;;;;;0.00;0.00;;;15.30;81.70;;;;;;4999323;28;20053;-66
2023/05/10 12:31:01;;;;;;;0.00;0.00;;;15.50;82.60;;;;;;4998336;28;20042;-66
2023/05/10 12:33:27;;;;;;;0.00;0.00;;;15.50;81.70;;;;;;4996856;28;20095;-66
2023/05/10 12:35:54;;;;;;;0.00;0.00;;;15.60;82.00;;;;;;4999659;28;20038;-67
2023/05/10 12:38:33;;;;;;;0.00;0.00;;;15.60;81.70;;;;;;4999303;28;20054;-66
2023/05/10 12:41:00;;;;;;;0.30;0.30;;;15.60;81.00;;;;;;4997040;28;20092;-66
2023/05/10 12:43:25;;;;;;;0.00;0.00;;;15.60;81.50;;;;;;4993691;28;20034;-66
2023/05/10 12:45:51;;;;;;;0.00;0.00;;;15.60;81.30;;;;;;4996963;28;20828;-66
2023/05/10 12:48:17;;;;;;;0.00;0.00;;;15.60;82.10;;;;;;4996721;28;20104;-66
2023/05/10 12:50:42;;;;;;;0.52;0.52;;;15.70;82.30;;;;;;4996761;28;20096;-66
2023/05/10 12:53:08;;;;;;;0.00;0.00;;;15.80;82.20;;;;;;4996152;28;20046;-66